sensor_id;sensor_type;location;lat;lon;timestamp;P1;durP1;ratioP1;P2;durP2;ratioP2
45802;SDS011;31504;51.716;9.184;2022-11-14T00:00:22;15.13;;;11.77;;
45802;SDS011;31504;51.716;9.184;2022-11-14T00:03:23;12.80;;;11.00;;
45802;SDS011;31504;51.716;9.184;2022-11-14T00:06:24;14.90;;;12.37;;
45802;SDS011;31504;51.716;9.184;2022-11-14T00:09:25;14.37;;;11.03;;
45802;SDS011;31504;51.716;9.184;2022-11-14T00:12:26;12.40;;;10.63;;
45802;SDS011;31504;51.716;9.184;2022-11-14T00:15:27;12.27;;;10.57;;
45802;SDS011;31504;51.716;9.184;2022-11-14T00:18:27;13.53;;;11.80;;
45802;SDS011;31504;51.716;9.184;2022-11-14T00:21:28;13.20;;;10.43;;
45802;SDS011;31504;51.716;9.184;2022-11-14T00:24:28;13.20;;;10.80;;
45802;SDS011;31504;51.716;9.184;2022-11-14T00:27:29;14.20;;;10.90;;
45802;SDS011;31504;51.716;9.184;2022-11-14T00:30:29;13.17;;;10.40;;
45802;SDS011;31504;51.716;9.184;2022-11-14T00:33:30;12.75;;;10.82;;
45802;SDS011;31504;51.716;9.184;2022-11-14T00:36:31;12.37;;;9.70;;
45802;SDS011;31504;51.716;9.184;2022-11-14T00:39:31;13.10;;;10.37;;
45802;SDS011;31504;51.716;9.184;2022-11-14T00:42:32;13.27;;;10.87;;
45802;SDS011;31504;51.716;9.184;2022-11-14T00:45:33;13.27;;;10.53;;
45802;SDS011;31504;51.716;9.184;2022-11-14T00:48:34;12.57;;;10.32;;
45802;SDS011;31504;51.716;9.184;2022-11-14T00:51:34;14.13;;;10.70;;
45802;SDS011;31504;51.716;9.184;2022-11-14T00:54:35;11.85;;;10.18;;
45802;SDS011;31504;51.716;9.184;2022-11-14T00:57:35;12.45;;;10.10;;
45802;SDS011;31504;51.716;9.184;2022-11-14T01:00:36;12.03;;;10.17;;
45802;SDS011;31504;51.716;9.184;2022-11-14T01:03:37;10.93;;;9.10;;
45802;SDS011;31504;51.716;9.184;2022-11-14T01:06:37;12.20;;;9.77;;
45802;SDS011;31504;51.716;9.184;2022-11-14T01:09:38;11.37;;;9.50;;
45802;SDS011;31504;51.716;9.184;2022-11-14T01:12:38;9.88;;;8.68;;
45802;SDS011;31504;51.716;9.184;2022-11-14T01:15:40;10.87;;;8.97;;
45802;SDS011;31504;51.716;9.184;2022-11-14T01:18:41;10.75;;;9.55;;
45802;SDS011;31504;51.716;9.184;2022-11-14T01:21:42;12.33;;;9.57;;
45802;SDS011;31504;51.716;9.184;2022-11-14T01:24:43;11.10;;;9.47;;
45802;SDS011;31504;51.716;9.184;2022-11-14T01:27:43;10.00;;;8.77;;
45802;SDS011;31504;51.716;9.184;2022-11-14T01:30:44;11.00;;;9.37;;
45802;SDS011;31504;51.716;9.184;2022-11-14T01:33:47;11.67;;;9.20;;
45802;SDS011;31504;51.716;9.184;2022-11-14T01:36:49;10.63;;;9.50;;
45802;SDS011;31504;51.716;9.184;2022-11-14T01:39:49;10.73;;;9.30;;
45802;SDS011;31504;51.716;9.184;2022-11-14T01:46:33;11.05;;;9.15;;
45802;SDS011;31504;51.716;9.184;2022-11-14T01:49:40;9.65;;;8.60;;
45802;SDS011;31504;51.716;9.184;2022-11-14T01:52:44;11.00;;;9.10;;
45802;SDS011;31504;51.716;9.184;2022-11-14T01:55:45;10.43;;;9.20;;
45802;SDS011;31504;51.716;9.184;2022-11-14T01:58:49;11.05;;;9.07;;
45802;SDS011;31504;51.716;9.184;2022-11-14T02:01:59;9.00;;;7.90;;
45802;SDS011;31504;51.716;9.184;2022-11-14T02:05:08;10.45;;;8.77;;
45802;SDS011;31504;51.716;9.184;2022-11-14T02:08:12;10.60;;;8.52;;
45802;SDS011;31504;51.716;9.184;2022-11-14T02:11:13;9.47;;;8.47;;
45802;SDS011;31504;51.716;9.184;2022-11-14T02:14:15;8.83;;;7.93;;
45802;SDS011;31504;51.716;9.184;2022-11-14T02:17:16;10.13;;;8.20;;
45802;SDS011;31504;51.716;9.184;2022-11-14T02:20:19;8.37;;;7.57;;
45802;SDS011;31504;51.716;9.184;2022-11-14T02:23:24;10.20;;;8.40;;
45802;SDS011;31504;51.716;9.184;2022-11-14T02:26:26;10.02;;;8.95;;
45802;SDS011;31504;51.716;9.184;2022-11-14T02:29:26;9.23;;;8.27;;
45802;SDS011;31504;51.716;9.184;2022-11-14T02:32:27;8.70;;;7.80;;
45802;SDS011;31504;51.716;9.184;2022-11-14T02:35:28;10.37;;;8.33;;
45802;SDS011;31504;51.716;9.184;2022-11-14T02:38:28;10.47;;;8.57;;
45802;SDS011;31504;51.716;9.184;2022-11-14T02:41:29;10.30;;;8.35;;
45802;SDS011;31504;51.716;9.184;2022-11-14T02:44:29;10.13;;;8.83;;
45802;SDS011;31504;51.716;9.184;2022-11-14T02:47:30;9.30;;;8.35;;
45802;SDS011;31504;51.716;9.184;2022-11-14T02:50:31;8.90;;;7.70;;
45802;SDS011;31504;51.716;9.184;2022-11-14T02:53:31;9.35;;;8.10;;
45802;SDS011;31504;51.716;9.184;2022-11-14T02:56:32;9.73;;;8.13;;
45802;SDS011;31504;51.716;9.184;2022-11-14T02:59:33;10.33;;;8.07;;
45802;SDS011;31504;51.716;9.184;2022-11-14T03:02:34;9.60;;;8.07;;
45802;SDS011;31504;51.716;9.184;2022-11-14T03:05:34;9.47;;;8.10;;
45802;SDS011;31504;51.716;9.184;2022-11-14T03:08:35;8.90;;;7.77;;
45802;SDS011;31504;51.716;9.184;2022-11-14T03:11:35;11.20;;;8.43;;
45802;SDS011;31504;51.716;9.184;2022-11-14T03:14:37;9.95;;;8.77;;
45802;SDS011;31504;51.716;9.184;2022-11-14T03:17:38;10.17;;;7.90;;
45802;SDS011;31504;51.716;9.184;2022-11-14T03:20:39;10.00;;;8.80;;
45802;SDS011;31504;51.716;9.184;2022-11-14T03:23:39;9.73;;;8.30;;
45802;SDS011;31504;51.716;9.184;2022-11-14T03:26:40;11.53;;;8.97;;
45802;SDS011;31504;51.716;9.184;2022-11-14T03:29:41;10.67;;;9.27;;
45802;SDS011;31504;51.716;9.184;2022-11-14T03:32:42;9.83;;;8.43;;
45802;SDS011;31504;51.716;9.184;2022-11-14T03:35:42;10.63;;;8.93;;
45802;SDS011;31504;51.716;9.184;2022-11-14T03:38:43;11.10;;;9.57;;
45802;SDS011;31504;51.716;9.184;2022-11-14T03:41:44;14.95;;;13.35;;
45802;SDS011;31504;51.716;9.184;2022-11-14T03:44:44;18.45;;;16.42;;
45802;SDS011;31504;51.716;9.184;2022-11-14T03:47:45;23.47;;;19.27;;
45802;SDS011;31504;51.716;9.184;2022-11-14T03:50:45;30.07;;;24.93;;
45802;SDS011;31504;51.716;9.184;2022-11-14T03:53:46;33.20;;;27.10;;
45802;SDS011;31504;51.716;9.184;2022-11-14T03:56:46;40.22;;;32.88;;
45802;SDS011;31504;51.716;9.184;2022-11-14T03:59:47;46.83;;;38.93;;
45802;SDS011;31504;51.716;9.184;2022-11-14T04:02:48;55.50;;;45.27;;
45802;SDS011;31504;51.716;9.184;2022-11-14T04:05:48;61.50;;;50.70;;
45802;SDS011;31504;51.716;9.184;2022-11-14T04:08:49;71.03;;;57.37;;
45802;SDS011;31504;51.716;9.184;2022-11-14T04:11:53;85.47;;;69.40;;
45802;SDS011;31504;51.716;9.184;2022-11-14T04:14:53;94.00;;;77.03;;
45802;SDS011;31504;51.716;9.184;2022-11-14T04:17:54;101.50;;;83.20;;
45802;SDS011;31504;51.716;9.184;2022-11-14T04:20:55;106.20;;;85.87;;
45802;SDS011;31504;51.716;9.184;2022-11-14T04:23:55;116.60;;;94.63;;
45802;SDS011;31504;51.716;9.184;2022-11-14T04:26:56;113.53;;;92.80;;
45802;SDS011;31504;51.716;9.184;2022-11-14T04:29:57;118.10;;;96.37;;
45802;SDS011;31504;51.716;9.184;2022-11-14T04:32:57;120.03;;;96.30;;
45802;SDS011;31504;51.716;9.184;2022-11-14T04:35:58;115.60;;;95.60;;
45802;SDS011;31504;51.716;9.184;2022-11-14T04:38:59;121.50;;;99.37;;
45802;SDS011;31504;51.716;9.184;2022-11-14T04:42:00;122.30;;;100.33;;
45802;SDS011;31504;51.716;9.184;2022-11-14T04:45:00;125.27;;;98.60;;
45802;SDS011;31504;51.716;9.184;2022-11-14T04:48:01;124.27;;;103.03;;
45802;SDS011;31504;51.716;9.184;2022-11-14T04:51:02;126.67;;;102.27;;
45802;SDS011;31504;51.716;9.184;2022-11-14T04:54:02;129.37;;;106.27;;
45802;SDS011;31504;51.716;9.184;2022-11-14T04:57:03;128.83;;;104.80;;
45802;SDS011;31504;51.716;9.184;2022-11-14T05:00:04;123.30;;;101.87;;
45802;SDS011;31504;51.716;9.184;2022-11-14T05:03:05;123.43;;;99.70;;
45802;SDS011;31504;51.716;9.184;2022-11-14T05:06:06;118.60;;;96.80;;
45802;SDS011;31504;51.716;9.184;2022-11-14T05:09:07;116.87;;;95.90;;
45802;SDS011;31504;51.716;9.184;2022-11-14T05:12:08;110.63;;;90.37;;
45802;SDS011;31504;51.716;9.184;2022-11-14T05:15:08;107.00;;;88.40;;
45802;SDS011;31504;51.716;9.184;2022-11-14T05:18:09;105.67;;;84.93;;
45802;SDS011;31504;51.716;9.184;2022-11-14T05:21:13;101.80;;;82.83;;
45802;SDS011;31504;51.716;9.184;2022-11-14T05:24:14;97.47;;;79.83;;
45802;SDS011;31504;51.716;9.184;2022-11-14T05:27:15;102.90;;;82.30;;
45802;SDS011;31504;51.716;9.184;2022-11-14T05:30:16;100.40;;;80.82;;
45802;SDS011;31504;51.716;9.184;2022-11-14T05:33:17;97.57;;;78.18;;
45802;SDS011;31504;51.716;9.184;2022-11-14T05:36:17;90.28;;;74.60;;
45802;SDS011;31504;51.716;9.184;2022-11-14T05:39:18;87.20;;;71.87;;
45802;SDS011;31504;51.716;9.184;2022-11-14T05:42:19;86.77;;;69.43;;
45802;SDS011;31504;51.716;9.184;2022-11-14T05:45:20;83.43;;;67.72;;
45802;SDS011;31504;51.716;9.184;2022-11-14T05:48:20;80.07;;;63.27;;
45802;SDS011;31504;51.716;9.184;2022-11-14T05:51:21;70.73;;;57.53;;
45802;SDS011;31504;51.716;9.184;2022-11-14T05:54:21;68.23;;;56.73;;
45802;SDS011;31504;51.716;9.184;2022-11-14T05:57:22;67.33;;;54.07;;
45802;SDS011;31504;51.716;9.184;2022-11-14T06:00:22;62.33;;;50.70;;
45802;SDS011;31504;51.716;9.184;2022-11-14T06:03:23;57.87;;;45.83;;
45802;SDS011;31504;51.716;9.184;2022-11-14T06:06:24;55.30;;;44.50;;
45802;SDS011;31504;51.716;9.184;2022-11-14T06:09:25;50.33;;;42.43;;
45802;SDS011;31504;51.716;9.184;2022-11-14T06:12:25;48.30;;;39.67;;
45802;SDS011;31504;51.716;9.184;2022-11-14T06:15:26;44.50;;;36.90;;
45802;SDS011;31504;51.716;9.184;2022-11-14T06:18:27;43.83;;;35.35;;
45802;SDS011;31504;51.716;9.184;2022-11-14T06:21:28;40.23;;;32.73;;
45802;SDS011;31504;51.716;9.184;2022-11-14T06:24:28;38.23;;;31.23;;
45802;SDS011;31504;51.716;9.184;2022-11-14T06:27:29;37.33;;;29.97;;
45802;SDS011;31504;51.716;9.184;2022-11-14T06:30:30;35.70;;;28.73;;
45802;SDS011;31504;51.716;9.184;2022-11-14T06:33:34;33.17;;;26.93;;
45802;SDS011;31504;51.716;9.184;2022-11-14T06:36:35;30.50;;;25.13;;
45802;SDS011;31504;51.716;9.184;2022-11-14T06:39:36;31.90;;;25.60;;
45802;SDS011;31504;51.716;9.184;2022-11-14T06:42:37;27.70;;;23.20;;
45802;SDS011;31504;51.716;9.184;2022-11-14T06:45:37;28.77;;;23.20;;
45802;SDS011;31504;51.716;9.184;2022-11-14T06:48:38;28.30;;;22.80;;
45802;SDS011;31504;51.716;9.184;2022-11-14T06:51:39;25.63;;;21.50;;
45802;SDS011;31504;51.716;9.184;2022-11-14T06:54:40;26.20;;;21.73;;
45802;SDS011;31504;51.716;9.184;2022-11-14T06:57:40;24.75;;;20.73;;
45802;SDS011;31504;51.716;9.184;2022-11-14T07:00:41;23.73;;;19.83;;
45802;SDS011;31504;51.716;9.184;2022-11-14T07:03:42;23.25;;;18.08;;
45802;SDS011;31504;51.716;9.184;2022-11-14T07:06:43;22.27;;;19.60;;
45802;SDS011;31504;51.716;9.184;2022-11-14T07:09:44;22.15;;;18.30;;
45802;SDS011;31504;51.716;9.184;2022-11-14T07:12:44;21.55;;;17.90;;
45802;SDS011;31504;51.716;9.184;2022-11-14T07:15:51;21.65;;;18.13;;
45802;SDS011;31504;51.716;9.184;2022-11-14T07:18:52;21.97;;;17.67;;
45802;SDS011;31504;51.716;9.184;2022-11-14T07:21:53;18.73;;;15.57;;
45802;SDS011;31504;51.716;9.184;2022-11-14T07:24:54;22.23;;;16.73;;
45802;SDS011;31504;51.716;9.184;2022-11-14T07:27:55;19.57;;;16.50;;
45802;SDS011;31504;51.716;9.184;2022-11-14T07:30:56;19.17;;;16.33;;
45802;SDS011;31504;51.716;9.184;2022-11-14T07:33:57;18.53;;;15.17;;
45802;SDS011;31504;51.716;9.184;2022-11-14T07:36:58;20.75;;;15.02;;
45802;SDS011;31504;51.716;9.184;2022-11-14T07:39:58;17.03;;;13.97;;
45802;SDS011;31504;51.716;9.184;2022-11-14T07:42:59;18.73;;;15.10;;
45802;SDS011;31504;51.716;9.184;2022-11-14T07:46:01;17.33;;;14.57;;
45802;SDS011;31504;51.716;9.184;2022-11-14T07:49:03;17.03;;;14.13;;
45802;SDS011;31504;51.716;9.184;2022-11-14T07:52:04;17.20;;;14.17;;
45802;SDS011;31504;51.716;9.184;2022-11-14T07:55:04;16.33;;;13.80;;
45802;SDS011;31504;51.716;9.184;2022-11-14T07:58:05;15.53;;;13.37;;
45802;SDS011;31504;51.716;9.184;2022-11-14T08:01:06;17.97;;;14.40;;
45802;SDS011;31504;51.716;9.184;2022-11-14T08:04:08;15.27;;;13.38;;
45802;SDS011;31504;51.716;9.184;2022-11-14T08:07:09;16.63;;;12.87;;
45802;SDS011;31504;51.716;9.184;2022-11-14T08:10:10;14.97;;;12.73;;
45802;SDS011;31504;51.716;9.184;2022-11-14T08:13:12;14.03;;;12.23;;
45802;SDS011;31504;51.716;9.184;2022-11-14T08:16:13;15.47;;;12.83;;
45802;SDS011;31504;51.716;9.184;2022-11-14T08:19:13;13.70;;;11.47;;
45802;SDS011;31504;51.716;9.184;2022-11-14T08:22:15;14.87;;;12.10;;
45802;SDS011;31504;51.716;9.184;2022-11-14T08:25:16;12.17;;;10.73;;
45802;SDS011;31504;51.716;9.184;2022-11-14T08:28:16;14.83;;;12.70;;
45802;SDS011;31504;51.716;9.184;2022-11-14T08:31:17;14.23;;;11.73;;
45802;SDS011;31504;51.716;9.184;2022-11-14T08:34:17;14.03;;;11.43;;
45802;SDS011;31504;51.716;9.184;2022-11-14T08:37:18;13.03;;;10.97;;
45802;SDS011;31504;51.716;9.184;2022-11-14T08:40:19;14.30;;;11.10;;
45802;SDS011;31504;51.716;9.184;2022-11-14T08:43:19;13.23;;;11.43;;
45802;SDS011;31504;51.716;9.184;2022-11-14T08:46:20;13.27;;;10.67;;
45802;SDS011;31504;51.716;9.184;2022-11-14T08:49:21;12.03;;;9.93;;
45802;SDS011;31504;51.716;9.184;2022-11-14T08:52:21;12.87;;;11.00;;
45802;SDS011;31504;51.716;9.184;2022-11-14T08:55:22;12.40;;;10.13;;
45802;SDS011;31504;51.716;9.184;2022-11-14T08:58:23;12.47;;;10.80;;
45802;SDS011;31504;51.716;9.184;2022-11-14T09:01:26;11.27;;;9.98;;
45802;SDS011;31504;51.716;9.184;2022-11-14T09:04:26;11.60;;;10.05;;
45802;SDS011;31504;51.716;9.184;2022-11-14T09:07:27;12.23;;;10.60;;
45802;SDS011;31504;51.716;9.184;2022-11-14T09:10:27;12.67;;;10.50;;
45802;SDS011;31504;51.716;9.184;2022-11-14T09:13:30;11.53;;;9.63;;
45802;SDS011;31504;51.716;9.184;2022-11-14T09:16:32;12.15;;;10.20;;
45802;SDS011;31504;51.716;9.184;2022-11-14T09:19:32;10.00;;;9.00;;
45802;SDS011;31504;51.716;9.184;2022-11-14T09:22:33;12.37;;;10.03;;
45802;SDS011;31504;51.716;9.184;2022-11-14T09:25:34;10.17;;;8.80;;
45802;SDS011;31504;51.716;9.184;2022-11-14T09:28:35;9.90;;;8.63;;
45802;SDS011;31504;51.716;9.184;2022-11-14T09:31:36;11.27;;;9.43;;
45802;SDS011;31504;51.716;9.184;2022-11-14T09:34:37;11.27;;;8.83;;
45802;SDS011;31504;51.716;9.184;2022-11-14T09:37:41;10.63;;;9.37;;
45802;SDS011;31504;51.716;9.184;2022-11-14T09:41:01;11.13;;;9.60;;
45802;SDS011;31504;51.716;9.184;2022-11-14T09:44:31;11.07;;;9.35;;
45802;SDS011;31504;51.716;9.184;2022-11-14T09:47:43;11.27;;;9.57;;
45802;SDS011;31504;51.716;9.184;2022-11-14T09:51:07;10.43;;;9.23;;
45802;SDS011;31504;51.716;9.184;2022-11-14T09:54:18;9.20;;;8.20;;
45802;SDS011;31504;51.716;9.184;2022-11-14T09:57:21;9.68;;;8.68;;
45802;SDS011;31504;51.716;9.184;2022-11-14T10:00:24;10.93;;;8.90;;
45802;SDS011;31504;51.716;9.184;2022-11-14T10:03:32;10.18;;;8.50;;
45802;SDS011;31504;51.716;9.184;2022-11-14T10:13:29;9.45;;;8.23;;
45802;SDS011;31504;51.716;9.184;2022-11-14T10:27:06;10.40;;;8.65;;
45802;SDS011;31504;51.716;9.184;2022-11-14T10:30:15;10.43;;;8.32;;
45802;SDS011;31504;51.716;9.184;2022-11-14T10:39:56;7.97;;;7.13;;
45802;SDS011;31504;51.716;9.184;2022-11-14T10:43:39;9.15;;;7.50;;
45802;SDS011;31504;51.716;9.184;2022-11-14T10:46:46;9.50;;;8.47;;
45802;SDS011;31504;51.716;9.184;2022-11-14T10:49:53;9.10;;;8.00;;
45802;SDS011;31504;51.716;9.184;2022-11-14T10:53:00;8.52;;;7.45;;
45802;SDS011;31504;51.716;9.184;2022-11-14T10:56:04;8.53;;;7.43;;
45802;SDS011;31504;51.716;9.184;2022-11-14T10:59:08;10.70;;;8.57;;
45802;SDS011;31504;51.716;9.184;2022-11-14T11:02:09;8.23;;;7.43;;
45802;SDS011;31504;51.716;9.184;2022-11-14T11:05:11;8.43;;;7.60;;
45802;SDS011;31504;51.716;9.184;2022-11-14T11:08:18;9.40;;;8.40;;
45802;SDS011;31504;51.716;9.184;2022-11-14T11:11:40;11.95;;;9.70;;
45802;SDS011;31504;51.716;9.184;2022-11-14T11:18:30;19.52;;;14.82;;
45802;SDS011;31504;51.716;9.184;2022-11-14T11:21:44;18.58;;;15.73;;
45802;SDS011;31504;51.716;9.184;2022-11-14T11:24:47;25.43;;;19.57;;
45802;SDS011;31504;51.716;9.184;2022-11-14T11:28:02;27.50;;;22.43;;
45802;SDS011;31504;51.716;9.184;2022-11-14T11:31:07;29.17;;;25.40;;
45802;SDS011;31504;51.716;9.184;2022-11-14T11:34:09;37.13;;;31.37;;
45802;SDS011;31504;51.716;9.184;2022-11-14T11:37:24;44.13;;;33.97;;
45802;SDS011;31504;51.716;9.184;2022-11-14T11:40:34;44.23;;;36.53;;
45802;SDS011;31504;51.716;9.184;2022-11-14T11:43:41;47.07;;;39.60;;
45802;SDS011;31504;51.716;9.184;2022-11-14T11:49:56;57.77;;;47.63;;
45802;SDS011;31504;51.716;9.184;2022-11-14T11:59:31;62.95;;;51.28;;
45802;SDS011;31504;51.716;9.184;2022-11-14T12:02:37;66.00;;;53.57;;
45802;SDS011;31504;51.716;9.184;2022-11-14T12:06:23;68.70;;;55.10;;
45802;SDS011;31504;51.716;9.184;2022-11-14T12:09:25;74.55;;;57.58;;
45802;SDS011;31504;51.716;9.184;2022-11-14T12:12:46;74.72;;;60.83;;
45802;SDS011;31504;51.716;9.184;2022-11-14T12:16:19;77.13;;;61.60;;
45802;SDS011;31504;51.716;9.184;2022-11-14T12:19:39;79.20;;;64.15;;
45802;SDS011;31504;51.716;9.184;2022-11-14T12:29:39;75.55;;;59.75;;
45802;SDS011;31504;51.716;9.184;2022-11-14T12:33:02;67.47;;;53.42;;
45802;SDS011;31504;51.716;9.184;2022-11-14T12:36:09;62.60;;;49.73;;
45802;SDS011;31504;51.716;9.184;2022-11-14T12:39:25;57.70;;;47.88;;
45802;SDS011;31504;51.716;9.184;2022-11-14T12:42:27;55.97;;;46.60;;
45802;SDS011;31504;51.716;9.184;2022-11-14T12:48:59;49.83;;;39.73;;
45802;SDS011;31504;51.716;9.184;2022-11-14T12:51:59;45.57;;;38.33;;
45802;SDS011;31504;51.716;9.184;2022-11-14T12:55:00;46.65;;;37.45;;
45802;SDS011;31504;51.716;9.184;2022-11-14T13:01:26;44.03;;;36.92;;
45802;SDS011;31504;51.716;9.184;2022-11-14T13:04:42;41.83;;;35.80;;
45802;SDS011;31504;51.716;9.184;2022-11-14T13:11:39;41.85;;;36.10;;
45802;SDS011;31504;51.716;9.184;2022-11-14T13:18:54;43.67;;;34.53;;
45802;SDS011;31504;51.716;9.184;2022-11-14T13:22:32;40.50;;;35.35;;
45802;SDS011;31504;51.716;9.184;2022-11-14T13:25:36;42.03;;;33.03;;
45802;SDS011;31504;51.716;9.184;2022-11-14T13:31:41;36.33;;;31.33;;
45802;SDS011;31504;51.716;9.184;2022-11-14T13:34:49;37.10;;;31.53;;
45802;SDS011;31504;51.716;9.184;2022-11-14T13:41:24;35.17;;;29.50;;
45802;SDS011;31504;51.716;9.184;2022-11-14T13:51:35;35.35;;;29.90;;
45802;SDS011;31504;51.716;9.184;2022-11-14T13:54:37;37.38;;;31.10;;
45802;SDS011;31504;51.716;9.184;2022-11-14T14:01:09;42.10;;;35.78;;
45802;SDS011;31504;51.716;9.184;2022-11-14T14:04:39;41.88;;;36.53;;
45802;SDS011;31504;51.716;9.184;2022-11-14T14:07:57;51.75;;;43.10;;
45802;SDS011;31504;51.716;9.184;2022-11-14T14:11:12;51.92;;;44.33;;
45802;SDS011;31504;51.716;9.184;2022-11-14T14:18:22;53.25;;;45.50;;
45802;SDS011;31504;51.716;9.184;2022-11-14T14:22:00;60.85;;;51.20;;
45802;SDS011;31504;51.716;9.184;2022-11-14T14:31:52;56.45;;;47.85;;
45802;SDS011;31504;51.716;9.184;2022-11-14T14:38:26;52.53;;;44.75;;
45802;SDS011;31504;51.716;9.184;2022-11-14T14:41:29;52.17;;;45.00;;
45802;SDS011;31504;51.716;9.184;2022-11-14T14:44:35;51.25;;;42.63;;
45802;SDS011;31504;51.716;9.184;2022-11-14T14:47:38;53.10;;;43.00;;
45802;SDS011;31504;51.716;9.184;2022-11-14T14:50:41;51.60;;;44.28;;
45802;SDS011;31504;51.716;9.184;2022-11-14T14:53:51;58.20;;;48.10;;
45802;SDS011;31504;51.716;9.184;2022-11-14T14:56:54;63.80;;;53.63;;
45802;SDS011;31504;51.716;9.184;2022-11-14T15:03:00;69.47;;;56.97;;
45802;SDS011;31504;51.716;9.184;2022-11-14T15:06:04;75.10;;;61.27;;
45802;SDS011;31504;51.716;9.184;2022-11-14T15:09:28;77.43;;;63.23;;
45802;SDS011;31504;51.716;9.184;2022-11-14T15:12:29;79.70;;;65.03;;
45802;SDS011;31504;51.716;9.184;2022-11-14T15:15:31;81.07;;;66.35;;
45802;SDS011;31504;51.716;9.184;2022-11-14T15:18:32;83.07;;;67.82;;
45802;SDS011;31504;51.716;9.184;2022-11-14T15:21:34;87.80;;;71.97;;
45802;SDS011;31504;51.716;9.184;2022-11-14T15:24:34;88.00;;;73.20;;
45802;SDS011;31504;51.716;9.184;2022-11-14T15:27:43;96.17;;;77.43;;
45802;SDS011;31504;51.716;9.184;2022-11-14T15:30:59;95.37;;;77.43;;
45802;SDS011;31504;51.716;9.184;2022-11-14T15:34:05;99.50;;;81.33;;
45802;SDS011;31504;51.716;9.184;2022-11-14T15:37:21;101.50;;;82.67;;
45802;SDS011;31504;51.716;9.184;2022-11-14T15:40:22;106.30;;;87.80;;
45802;SDS011;31504;51.716;9.184;2022-11-14T15:43:36;110.50;;;91.37;;
45802;SDS011;31504;51.716;9.184;2022-11-14T15:46:47;109.57;;;91.20;;
45802;SDS011;31504;51.716;9.184;2022-11-14T15:49:53;111.27;;;91.27;;
45802;SDS011;31504;51.716;9.184;2022-11-14T15:53:22;120.50;;;97.97;;
45802;SDS011;31504;51.716;9.184;2022-11-14T15:56:24;140.52;;;110.10;;
45802;SDS011;31504;51.716;9.184;2022-11-14T15:59:25;169.77;;;125.43;;
45802;SDS011;31504;51.716;9.184;2022-11-14T16:02:27;209.80;;;150.10;;
45802;SDS011;31504;51.716;9.184;2022-11-14T16:05:30;219.05;;;154.00;;
45802;SDS011;31504;51.716;9.184;2022-11-14T16:08:31;250.70;;;170.70;;
45802;SDS011;31504;51.716;9.184;2022-11-14T16:11:32;259.53;;;184.17;;
45802;SDS011;31504;51.716;9.184;2022-11-14T16:14:33;265.27;;;184.27;;
45802;SDS011;31504;51.716;9.184;2022-11-14T16:17:38;268.60;;;185.38;;
45802;SDS011;31504;51.716;9.184;2022-11-14T16:20:40;264.42;;;185.63;;
45802;SDS011;31504;51.716;9.184;2022-11-14T16:23:41;252.60;;;182.10;;
45802;SDS011;31504;51.716;9.184;2022-11-14T16:26:42;238.25;;;173.32;;
45802;SDS011;31504;51.716;9.184;2022-11-14T16:29:42;245.55;;;174.57;;
45802;SDS011;31504;51.716;9.184;2022-11-14T16:32:43;246.17;;;174.93;;
45802;SDS011;31504;51.716;9.184;2022-11-14T16:35:45;239.48;;;173.45;;
45802;SDS011;31504;51.716;9.184;2022-11-14T16:38:46;234.60;;;166.97;;
45802;SDS011;31504;51.716;9.184;2022-11-14T16:41:47;231.93;;;167.47;;
45802;SDS011;31504;51.716;9.184;2022-11-14T16:44:47;229.65;;;168.68;;
45802;SDS011;31504;51.716;9.184;2022-11-14T16:47:48;224.23;;;160.30;;
45802;SDS011;31504;51.716;9.184;2022-11-14T16:50:49;211.23;;;155.27;;
45802;SDS011;31504;51.716;9.184;2022-11-14T16:53:53;208.13;;;152.85;;
45802;SDS011;31504;51.716;9.184;2022-11-14T16:56:55;200.30;;;146.27;;
45802;SDS011;31504;51.716;9.184;2022-11-14T16:59:56;196.45;;;143.05;;
45802;SDS011;31504;51.716;9.184;2022-11-14T17:02:57;183.20;;;135.00;;
45802;SDS011;31504;51.716;9.184;2022-11-14T17:05:58;181.00;;;135.70;;
45802;SDS011;31504;51.716;9.184;2022-11-14T17:08:58;170.52;;;127.60;;
45802;SDS011;31504;51.716;9.184;2022-11-14T17:11:59;169.07;;;124.77;;
45802;SDS011;31504;51.716;9.184;2022-11-14T17:15:00;150.50;;;114.00;;
45802;SDS011;31504;51.716;9.184;2022-11-14T17:18:01;157.02;;;115.43;;
45802;SDS011;31504;51.716;9.184;2022-11-14T17:21:03;150.82;;;110.40;;
45802;SDS011;31504;51.716;9.184;2022-11-14T17:24:05;143.55;;;108.00;;
45802;SDS011;31504;51.716;9.184;2022-11-14T17:27:06;127.97;;;99.35;;
45802;SDS011;31504;51.716;9.184;2022-11-14T17:30:10;124.77;;;94.43;;
45802;SDS011;31504;51.716;9.184;2022-11-14T17:33:11;121.95;;;89.80;;
45802;SDS011;31504;51.716;9.184;2022-11-14T17:36:11;121.05;;;88.68;;
45802;SDS011;31504;51.716;9.184;2022-11-14T17:39:13;110.65;;;84.03;;
45802;SDS011;31504;51.716;9.184;2022-11-14T17:42:14;109.47;;;82.80;;
45802;SDS011;31504;51.716;9.184;2022-11-14T17:45:14;105.90;;;78.63;;
45802;SDS011;31504;51.716;9.184;2022-11-14T17:48:15;95.87;;;74.03;;
45802;SDS011;31504;51.716;9.184;2022-11-14T17:51:15;96.90;;;71.68;;
45802;SDS011;31504;51.716;9.184;2022-11-14T17:54:16;89.20;;;67.20;;
45802;SDS011;31504;51.716;9.184;2022-11-14T17:57:16;86.20;;;65.60;;
45802;SDS011;31504;51.716;9.184;2022-11-14T18:00:17;83.40;;;63.85;;
45802;SDS011;31504;51.716;9.184;2022-11-14T18:03:18;85.00;;;63.27;;
45802;SDS011;31504;51.716;9.184;2022-11-14T18:06:19;81.60;;;61.92;;
45802;SDS011;31504;51.716;9.184;2022-11-14T18:09:20;76.22;;;56.65;;
45802;SDS011;31504;51.716;9.184;2022-11-14T18:12:21;77.43;;;55.27;;
45802;SDS011;31504;51.716;9.184;2022-11-14T18:15:22;67.97;;;52.67;;
45802;SDS011;31504;51.716;9.184;2022-11-14T18:18:23;69.50;;;51.27;;
45802;SDS011;31504;51.716;9.184;2022-11-14T18:21:23;65.65;;;49.50;;
45802;SDS011;31504;51.716;9.184;2022-11-14T18:24:24;63.30;;;48.53;;
45802;SDS011;31504;51.716;9.184;2022-11-14T18:27:24;61.37;;;46.07;;
45802;SDS011;31504;51.716;9.184;2022-11-14T18:30:25;52.15;;;42.90;;
45802;SDS011;31504;51.716;9.184;2022-11-14T18:33:26;59.05;;;44.38;;
45802;SDS011;31504;51.716;9.184;2022-11-14T18:36:26;53.67;;;42.13;;
45802;SDS011;31504;51.716;9.184;2022-11-14T18:39:27;52.07;;;40.60;;
45802;SDS011;31504;51.716;9.184;2022-11-14T18:42:29;49.03;;;38.87;;
45802;SDS011;31504;51.716;9.184;2022-11-14T18:45:30;48.65;;;37.45;;
45802;SDS011;31504;51.716;9.184;2022-11-14T18:48:33;47.57;;;36.40;;
45802;SDS011;31504;51.716;9.184;2022-11-14T18:51:35;44.90;;;36.03;;
45802;SDS011;31504;51.716;9.184;2022-11-14T18:54:40;44.67;;;35.63;;
45802;SDS011;31504;51.716;9.184;2022-11-14T18:57:41;41.85;;;33.95;;
45802;SDS011;31504;51.716;9.184;2022-11-14T19:00:42;43.80;;;34.72;;
45802;SDS011;31504;51.716;9.184;2022-11-14T19:03:44;42.27;;;33.47;;
45802;SDS011;31504;51.716;9.184;2022-11-14T19:06:44;41.75;;;33.70;;
45802;SDS011;31504;51.716;9.184;2022-11-14T19:09:45;38.70;;;31.10;;
45802;SDS011;31504;51.716;9.184;2022-11-14T19:12:46;38.05;;;29.98;;
45802;SDS011;31504;51.716;9.184;2022-11-14T19:15:47;37.57;;;30.50;;
45802;SDS011;31504;51.716;9.184;2022-11-14T19:18:48;34.90;;;29.00;;
45802;SDS011;31504;51.716;9.184;2022-11-14T19:21:48;36.45;;;28.35;;
45802;SDS011;31504;51.716;9.184;2022-11-14T19:24:49;30.77;;;26.25;;
45802;SDS011;31504;51.716;9.184;2022-11-14T19:27:50;31.97;;;26.33;;